Time;durP1;ratioP1;P1;durP2;ratioP2;P2;SDS_P1;SDS_P2;PMS_P1;PMS_P2;Temp;Humidity;BMP_temperature;BMP_pressure;BME280_temperature;BME280_humidity;BME280_pressure;Samples;Min_cycle;Max_cycle;Signal;HPM_P1;HPM_P2
2023/09/22 00:00:03;;;;;;;;;;;;;;;13.65;100.00;99809.13;4996728;28;19914;-75
2023/09/22 00:02:29;;;;;;;;;;;;;;;13.67;100.00;99812.50;4979467;28;19918;-75
2023/09/22 00:04:54;;;;;;;;;;;;;;;13.66;100.00;99802.91;4996338;28;19980;-75
2023/09/22 00:07:20;;;;;;;;;;;;;;;13.64;100.00;99808.28;4999139;28;19925;-75
2023/09/22 00:09:45;;;;;;;;;;;;;;;13.58;100.00;99806.09;4999323;28;20205;-75
2023/09/22 00:12:10;;;;;;;;;;;;;;;13.59;100.00;99795.47;4995864;28;19968;-75
2023/09/22 00:14:36;;;;;;;;;;;;;;;13.62;100.00;99789.13;4995984;28;19917;-75
2023/09/22 00:17:01;;;;;;;;;;;;;;;13.63;100.00;99801.34;4996597;28;19917;-75
2023/09/22 00:19:27;;;;;;;;;;;;;;;13.66;100.00;99813.44;5001559;28;19918;-75
2023/09/22 00:21:55;;;;;;;;;;;;;;;13.63;100.00;99823.22;4995471;28;20209;-75
2023/09/22 00:24:20;;;;;;;;;;;;;;;13.64;100.00;99826.69;4968644;28;19956;-75
2023/09/22 00:26:46;;;;;;;;;;;;;;;13.65;100.00;99831.03;4995691;28;19917;-75
2023/09/22 00:29:11;;;;;;;;;;;;;;;13.62;100.00;99832.09;4996205;28;19917;-75
2023/09/22 00:31:36;;;;;;;;;;;;;;;13.59;100.00;99821.78;4995506;28;19914;-75
2023/09/22 00:34:02;;;;;;;;;;;;;;;13.62;100.00;99820.69;4995552;28;19921;-75
2023/09/22 00:36:27;;;;;;;;;;;;;;;13.60;100.00;99812.06;4995515;28;20149;-75
2023/09/22 00:38:52;;;;;;;;;;;;;;;13.60;100.00;99820.81;5004518;28;19980;-75
2023/09/22 00:41:17;;;;;;;;;;;;;;;13.52;100.00;99817.88;5006784;28;19918;-75
2023/09/22 00:43:43;;;;;;;;;;;;;;;13.54;100.00;99820.41;4994295;28;20175;-75
2023/09/22 00:46:12;;;;;;;;;;;;;;;13.54;100.00;99821.25;4995557;28;20245;-75
2023/09/22 00:48:39;;;;;;;;;;;;;;;13.58;100.00;99835.03;5003750;28;19924;-75
2023/09/22 00:51:04;;;;;;;;;;;;;;;13.55;100.00;99835.22;5015611;28;19913;-75
2023/09/22 00:53:31;;;;;;;;;;;;;;;13.51;100.00;99828.50;5015015;28;19995;-75
2023/09/22 00:55:56;;;;;;;;;;;;;;;13.53;100.00;99837.13;4997455;28;19913;-75
2023/09/22 00:58:22;;;;;;;;;;;;;;;13.52;100.00;99830.19;4995675;28;19984;-75
2023/09/22 01:00:48;;;;;;;;;;;;;;;13.50;100.00;99827.66;4994849;28;20447;-75
2023/09/22 01:03:14;;;;;;;;;;;;;;;13.49;100.00;99825.97;4995688;28;20027;-75
2023/09/22 01:05:39;;;;;;;;;;;;;;;13.49;100.00;99818.06;4995384;28;19913;-74
2023/09/22 01:08:05;;;;;;;;;;;;;;;13.45;100.00;99829.75;4995521;28;19988;-75
2023/09/22 01:10:36;;;;;;;;;;;;;;;13.47;100.00;99827.88;4995472;28;20305;-75
2023/09/22 01:13:02;;;;;;;;;;;;;;;13.46;100.00;99814.81;4995978;28;19925;-75
2023/09/22 01:15:28;;;;;;;;;;;;;;;13.43;100.00;99811.47;4995791;28;20089;-75
2023/09/22 01:17:53;;;;;;;;;;;;;;;13.44;100.00;99807.03;4995571;28;20169;-75
2023/09/22 01:20:19;;;;;;;;;;;;;;;13.42;100.00;99806.28;5013431;28;19924;-75
2023/09/22 01:22:44;;;;;;;;;;;;;;;13.41;100.00;99810.72;5017006;28;19959;-75
2023/09/22 01:25:11;;;;;;;;;;;;;;;13.39;100.00;99801.28;5019117;28;19917;-75
2023/09/22 01:27:36;;;;;;;;;;;;;;;13.40;100.00;99797.69;5018979;28;19913;-75
2023/09/22 01:30:05;;;;;;;;;;;;;;;13.40;100.00;99795.88;5018983;28;20224;-75
2023/09/22 01:32:30;;;;;;;;;;;;;;;13.40;100.00;99797.69;5000691;28;20005;-75
2023/09/22 01:34:58;;;;;;;;;;;;;;;13.40;100.00;99795.03;4998878;28;20031;-75
2023/09/22 01:37:28;;;;;;;;;;;;;;;13.40;100.00;99790.63;4999337;28;19917;-75
2023/09/22 01:39:55;;;;;;;;;;;;;;;13.40;100.00;99793.25;4999240;28;19925;-75
2023/09/22 01:42:20;;;;;;;;;;;;;;;13.41;100.00;99787.06;4998182;28;19964;-75
2023/09/22 01:44:46;;;;;;;;;;;;;;;13.41;100.00;99786.22;4981324;28;20182;-75
2023/09/22 01:47:11;;;;;;;;;;;;;;;13.40;100.00;99790.63;4998987;28;19948;-75
2023/09/22 01:49:37;;;;;;;;;;;;;;;13.37;100.00;99782.97;4998850;28;20154;-75
2023/09/22 01:52:02;;;;;;;;;;;;;;;13.39;100.00;99790.75;4998637;28;19918;-75
2023/09/22 01:54:27;;;;;;;;;;;;;;;13.38;100.00;99789.06;4998923;28;19917;-75
2023/09/22 01:56:52;;;;;;;;;;;;;;;13.38;100.00;99787.25;4997765;28;19923;-75
2023/09/22 01:59:17;;;;;;;;;;;;;;;13.36;100.00;99785.69;4998804;28;20181;-75
2023/09/22 02:01:43;;;;;;;;;;;;;;;13.36;100.00;99783.91;4998750;28;19936;-75
2023/09/22 02:04:08;;;;;;;;;;;;;;;13.36;100.00;99785.69;4999034;28;20104;-75
2023/09/22 02:06:33;;;;;;;;;;;;;;;13.37;100.00;99777.69;4981070;28;19921;-75
2023/09/22 02:08:58;;;;;;;;;;;;;;;13.36;100.00;99776.00;4998325;28;19992;-75
2023/09/22 02:11:24;;;;;;;;;;;;;;;13.34;100.00;99777.06;4998501;28;20002;-75
2023/09/22 02:13:49;;;;;;;;;;;;;;;13.35;100.00;99779.59;4998353;28;19929;-75
2023/09/22 02:16:14;;;;;;;;;;;;;;;13.33;100.00;99773.56;4998818;28;19921;-75
2023/09/22 02:18:40;;;;;;;;;;;;;;;13.32;100.00;99776.34;4998085;28;19913;-75
2023/09/22 02:21:06;;;;;;;;;;;;;;;13.31;100.00;99778.09;4998664;28;19905;-75
2023/09/22 02:23:31;;;;;;;;;;;;;;;13.31;100.00;99772.03;4998088;28;20149;-75
2023/09/22 02:25:57;;;;;;;;;;;;;;;13.31;100.00;99766.75;4998165;28;19952;-75
2023/09/22 02:28:23;;;;;;;;;;;;;;;13.31;100.00;99770.22;4998390;28;20005;-75
2023/09/22 02:30:48;;;;;;;;;;;;;;;13.33;100.00;99772.75;4998086;28;19972;-74
2023/09/22 02:33:14;;;;;;;;;;;;;;;13.32;100.00;99771.09;4998418;28;20149;-75
2023/09/22 02:35:42;;;;;;;;;;;;;;;13.32;100.00;99771.09;4997838;28;19980;-75
2023/09/22 02:38:07;;;;;;;;;;;;;;;13.30;100.00;99771.16;4998096;28;19929;-75
2023/09/22 02:40:33;;;;;;;;;;;;;;;13.30;100.00;99778.19;4998093;28;19917;-75
2023/09/22 02:42:58;;;;;;;;;;;;;;;13.29;100.00;99779.16;4997761;28;19924;-75
2023/09/22 02:45:23;;;;;;;;;;;;;;;13.30;100.00;99778.19;4998295;28;20159;-75
2023/09/22 02:47:49;;;;;;;;;;;;;;;13.31;100.00;99769.38;4997575;28;19918;-75
2023/09/22 02:50:18;;;;;;;;;;;;;;;13.32;100.00;99765.81;4997795;28;19953;-75
2023/09/22 02:52:44;;;;;;;;;;;;;;;13.34;100.00;99771.81;4996945;28;20102;-74
2023/09/22 02:55:11;;;;;;;;;;;;;;;13.31;100.00;99770.22;4998125;28;19922;-75
2023/09/22 02:57:36;;;;;;;;;;;;;;;13.29;100.00;99766.81;4996717;28;20201;-75
2023/09/22 03:00:11;;;;;;;;;;;;;;;13.28;100.00;99772.19;4997542;28;19951;-75
2023/09/22 03:02:36;;;;;;;;;;;;;;;13.27;100.00;99768.72;4996799;28;20017;-75
2023/09/22 03:05:04;;;;;;;;;;;;;;;13.28;100.00;99772.19;4997534;28;19984;-75
2023/09/22 03:07:29;;;;;;;;;;;;;;;13.26;100.00;99767.03;4996684;28;20211;-75
2023/09/22 03:09:54;;;;;;;;;;;;;;;13.29;100.00;99771.25;5004674;28;19917;-75
2023/09/22 03:12:20;;;;;;;;;;;;;;;13.25;100.00;99775.88;4996912;28;19918;-75
2023/09/22 03:14:47;;;;;;;;;;;;;;;13.28;100.00;99780.06;5002594;28;20089;-75
2023/09/22 03:17:12;;;;;;;;;;;;;;;13.24;100.00;99780.31;4997141;28;19917;-75
2023/09/22 03:19:37;;;;;;;;;;;;;;;13.27;100.00;99773.97;4979193;28;19945;-75
2023/09/22 03:22:03;;;;;;;;;;;;;;;13.24;100.00;99772.41;4996232;28;19960;-75
2023/09/22 03:24:29;;;;;;;;;;;;;;;13.23;100.00;99770.72;4996904;28;20255;-75
2023/09/22 03:26:54;;;;;;;;;;;;;;;13.26;100.00;99767.03;4996548;28;20316;-75
2023/09/22 03:29:19;;;;;;;;;;;;;;;13.27;100.00;99767.91;4997041;28;19918;-75
2023/09/22 03:31:45;;;;;;;;;;;;;;;13.25;100.00;99771.44;4996686;28;20004;-75
2023/09/22 03:34:10;;;;;;;;;;;;;;;13.25;100.00;99765.38;4996552;28;19948;-75
2023/09/22 03:36:36;;;;;;;;;;;;;;;13.24;100.00;99761.03;4996591;28;19946;-75
2023/09/22 03:39:03;;;;;;;;;;;;;;;13.22;100.00;99755.91;4996182;28;19917;-75
2023/09/22 03:41:28;;;;;;;;;;;;;;;13.22;100.00;99761.16;4996841;28;20224;-75
2023/09/22 03:43:54;;;;;;;;;;;;;;;13.18;100.00;99759.69;4996515;28;19921;-75
2023/09/22 03:46:20;;;;;;;;;;;;;;;13.20;100.00;99754.31;4996536;28;19910;-75
2023/09/22 03:48:45;;;;;;;;;;;;;;;13.19;100.00;99756.13;4996142;28;19917;-75
2023/09/22 03:51:10;;;;;;;;;;;;;;;13.18;100.00;99757.06;4996721;28;19925;-75
2023/09/22 03:53:37;;;;;;;;;;;;;;;13.20;100.00;99756.94;4996550;28;19917;-75
2023/09/22 03:56:02;;;;;;;;;;;;;;;13.22;100.00;99752.41;4996562;28;19917;-75
2023/09/22 03:58:27;;;;;;;;;;;;;;;13.23;100.00;99754.94;4996472;28;19935;-75
2023/09/22 04:01:02;;;;;;;;;;;;;;;13.23;100.00;99760.22;4996029;28;20160;-75
2023/09/22 04:03:28;;;;;;;;;;;;;;;13.28;100.00;99764.28;4996458;28;19914;-75
2023/09/22 04:05:53;;;;;;;;;;;;;;;13.29;100.00;99761.56;4996323;28;20041;-75
2023/09/22 04:08:19;;;;;;;;;;;;;;;13.33;100.00;99762.22;4995990;28;20132;-75
2023/09/22 04:10:44;;;;;;;;;;;;;;;13.34;100.00;99753.41;4995831;28;19909;-75
2023/09/22 04:13:09;;;;;;;;;;;;;;;13.34;100.00;99761.28;5010098;28;19917;-75
2023/09/22 04:15:35;;;;;;;;;;;;;;;13.33;100.00;99762.22;4998095;28;19970;-75
2023/09/22 04:18:01;;;;;;;;;;;;;;;13.30;100.00;99759.78;5015886;28;19960;-75
2023/09/22 04:20:29;;;;;;;;;;;;;;;13.29;100.00;99764.19;5016004;28;20267;-75
2023/09/22 04:22:55;;;;;;;;;;;;;;;13.30;100.00;99772.91;4996820;28;19920;-75
2023/09/22 04:25:29;;;;;;;;;;;;;;;13.31;100.00;99770.22;4996689;28;20190;-75
2023/09/22 04:27:57;;;;;;;;;;;;;;;13.33;100.00;99763.06;4996160;28;19917;-75
2023/09/22 04:30:24;;;;;;;;;;;;;;;13.34;100.00;99770.03;4996601;28;19941;-75
2023/09/22 04:32:51;;;;;;;;;;;;;;;13.33;100.00;99776.22;4995031;28;19914;-75
2023/09/22 04:35:16;;;;;;;;;;;;;;;13.35;100.00;99778.75;4996059;28;19917;-75
2023/09/22 04:37:42;;;;;;;;;;;;;;;13.38;100.00;99781.16;4995357;28;20328;-75
2023/09/22 04:40:22;;;;;;;;;;;;;;;13.36;100.00;99778.63;4996240;28;19917;-75
2023/09/22 04:42:48;;;;;;;;;;;;;;;13.37;100.00;99784.72;4995331;28;20000;-75
2023/09/22 04:45:14;;;;;;;;;;;;;;;13.38;100.00;99776.75;4998121;28;19925;-75
2023/09/22 04:47:39;;;;;;;;;;;;;;;13.39;100.00;99775.81;4995313;28;19912;-75
2023/09/22 04:50:05;;;;;;;;;;;;;;;13.40;100.00;99782.72;4995782;28;19914;-75
2023/09/22 04:52:30;;;;;;;;;;;;;;;13.38;100.00;99775.91;4995385;28;19918;-75
2023/09/22 04:54:55;;;;;;;;;;;;;;;13.38;100.00;99784.63;4995261;28;20206;-75
2023/09/22 04:57:21;;;;;;;;;;;;;;;13.35;100.00;99778.75;4994974;28;20128;-75
2023/09/22 04:59:47;;;;;;;;;;;;;;;13.33;100.00;99780.63;4995191;28;19957;-75
2023/09/22 05:02:12;;;;;;;;;;;;;;;13.34;100.00;99784.97;4995728;28;19916;-75
2023/09/22 05:04:37;;;;;;;;;;;;;;;13.35;100.00;99787.50;4995201;28;20121;-75
2023/09/22 05:07:02;;;;;;;;;;;;;;;13.37;100.00;99790.00;4998254;28;19917;-75
2023/09/22 05:09:28;;;;;;;;;;;;;;;13.33;100.00;99784.09;4996056;28;19914;-76
2023/09/22 05:11:53;;;;;;;;;;;;;;;13.31;100.00;99791.25;4993814;28;19917;-75
2023/09/22 05:14:18;;;;;;;;;;;;;;;13.32;100.00;99794.75;4995460;28;19917;-75
2023/09/22 05:16:44;;;;;;;;;;;;;;;13.30;100.00;99805.34;4995081;28;19922;-75
2023/09/22 05:19:10;;;;;;;;;;;;;;;13.33;100.00;99799.88;4995606;28;19956;-75
2023/09/22 05:21:35;;;;;;;;;;;;;;;13.33;100.00;99807.75;4995366;28;20234;-75
2023/09/22 05:24:00;;;;;;;;;;;;;;;13.32;100.00;99813.16;4995052;28;19988;-76
2023/09/22 05:26:26;;;;;;;;;;;;;;;13.33;100.00;99814.81;4995840;28;19925;-75
2023/09/22 05:28:51;;;;;;;;;;;;;;;13.34;100.00;99819.97;4994957;28;19905;-75
2023/09/22 05:31:16;;;;;;;;;;;;;;;13.35;100.00;99815.56;4995429;28;19976;-75
2023/09/22 05:33:42;;;;;;;;;;;;;;;13.37;100.00;99817.16;4977258;28;19910;-76
2023/09/22 05:36:07;;;;;;;;;;;;;;;13.38;100.00;99816.19;4995424;28;19910;-76
2023/09/22 05:38:32;;;;;;;;;;;;;;;13.39;100.00;99819.69;4995202;28;19910;-76
2023/09/22 05:40:58;;;;;;;;;;;;;;;13.35;100.00;99820.81;4995133;28;19910;-76
2023/09/22 05:43:24;;;;;;;;;;;;;;;13.30;100.00;99822.88;4995369;28;20012;-76
2023/09/22 05:45:53;;;;;;;;;;;;;;;13.30;100.00;99831.63;4994134;28;19928;-76
2023/09/22 05:48:19;;;;;;;;;;;;;;;13.30;100.00;99822.88;4995146;28;19941;-75
2023/09/22 05:50:44;;;;;;;;;;;;;;;13.29;100.00;99827.31;5000496;28;20094;-76
2023/09/22 05:53:09;;;;;;;;;;;;;;;13.30;100.00;99829.00;4996183;28;19928;-75
2023/09/22 05:55:34;;;;;;;;;;;;;;;13.28;100.00;99835.28;4994880;28;20082;-75
2023/09/22 05:58:00;;;;;;;;;;;;;;;13.27;100.00;99838.88;4994831;28;20008;-76
2023/09/22 06:00:31;;;;;;;;;;;;;;;13.28;100.00;99840.53;4995023;28;20008;-76
2023/09/22 06:02:57;;;;;;;;;;;;;;;13.29;100.00;99837.81;4994408;28;20144;-76
2023/09/22 06:05:22;;;;;;;;;;;;;;;13.27;100.00;99841.50;4996004;28;19976;-76
2023/09/22 06:07:48;;;;;;;;;;;;;;;13.24;100.00;99843.41;4999256;28;19929;-76
2023/09/22 06:10:13;;;;;;;;;;;;;;;13.26;100.00;99843.28;5002845;28;19923;-76
2023/09/22 06:12:39;;;;;;;;;;;;;;;13.25;100.00;99847.69;5003935;28;20239;-76
2023/09/22 06:15:06;;;;;;;;;;;;;;;13.21;100.00;99846.22;5006890;28;20292;-76
2023/09/22 06:17:32;;;;;;;;;;;;;;;13.21;100.00;99840.97;5002613;28;19957;-76
2023/09/22 06:19:57;;;;;;;;;;;;;;;13.24;100.00;99850.44;5006638;28;19920;-76
2023/09/22 06:22:23;;;;;;;;;;;;;;;13.21;100.00;99848.88;4996210;28;19917;-76
2023/09/22 06:24:50;;;;;;;;;;;;;;;13.22;100.00;99844.44;5007083;28;19988;-76
2023/09/22 06:27:15;;;;;;;;;;;;;;;13.18;100.00;99850.84;5003237;28;19916;-76
2023/09/22 06:29:40;;;;;;;;;;;;;;;13.18;100.00;99850.84;5003168;28;19913;-76
2023/09/22 06:32:06;;;;;;;;;;;;;;;13.21;100.00;99848.03;5004941;28;19917;-76
2023/09/22 06:34:31;;;;;;;;;;;;;;;13.22;100.00;99849.69;5000272;28;19922;-76
2023/09/22 06:36:56;;;;;;;;;;;;;;;13.23;100.00;99856.66;5002883;28;20463;-75
2023/09/22 06:39:22;;;;;;;;;;;;;;;13.16;100.00;99866.72;5004693;28;20251;-75
2023/09/22 06:41:47;;;;;;;;;;;;;;;13.19;100.00;99860.44;5010598;28;20224;-75
2023/09/22 06:44:12;;;;;;;;;;;;;;;13.15;100.00;99872.94;5005336;28;19909;-76
2023/09/22 06:46:38;;;;;;;;;;;;;;;13.17;100.00;99870.19;5009915;28;19922;-75
2023/09/22 06:49:05;;;;;;;;;;;;;;;13.16;100.00;99879.88;4997739;28;20201;-76
2023/09/22 06:51:30;;;;;;;;;;;;;;;13.14;100.00;99873.88;4996901;28;19918;-75
2023/09/22 06:53:57;;;;;;;;;;;;;;;13.11;100.00;99881.13;4996855;28;19953;-75
2023/09/22 06:56:22;;;;;;;;;;;;;;;13.11;100.00;99891.63;4997747;28;19917;-75
2023/09/22 06:58:49;;;;;;;;;;;;;;;13.15;100.00;99888.72;4996590;28;20004;-75
2023/09/22 07:01:14;;;;;;;;;;;;;;;13.19;100.00;99895.44;4997358;28;20119;-76
2023/09/22 07:03:44;;;;;;;;;;;;;;;13.19;100.00;99899.88;4996451;28;19924;-75
2023/09/22 07:06:10;;;;;;;;;;;;;;;13.20;100.00;99897.13;4998002;28;19917;-76
2023/09/22 07:08:38;;;;;;;;;;;;;;;13.19;100.00;99902.50;4996302;28;19921;-75
2023/09/22 07:11:08;;;;;;;;;;;;;;;13.25;100.00;99907.34;4996802;28;20000;-75
2023/09/22 07:13:33;;;;;;;;;;;;;;;13.22;100.00;99905.78;4995955;28;20214;-75
2023/09/22 07:15:58;;;;;;;;;;;;;;;13.21;100.00;99911.97;4996177;28;19921;-75
2023/09/22 07:18:24;;;;;;;;;;;;;;;13.20;100.00;99920.78;4996938;28;20108;-76
2023/09/22 07:20:50;;;;;;;;;;;;;;;13.20;100.00;99925.19;4996194;28;19918;-75
2023/09/22 07:23:15;;;;;;;;;;;;;;;13.20;100.00;99910.25;4996632;28;19920;-75
2023/09/22 07:25:40;;;;;;;;;;;;;;;13.17;100.00;99926.25;4994524;28;19913;-75
2023/09/22 07:28:07;;;;;;;;;;;;;;;13.16;100.00;99934.25;4995693;28;20105;-75
2023/09/22 07:30:34;;;;;;;;;;;;;;;13.14;100.00;99926.47;4993133;28;20104;-75
2023/09/22 07:32:59;;;;;;;;;;;;;;;13.15;100.00;99928.16;4995464;28;19977;-75
2023/09/22 07:35:25;;;;;;;;;;;;;;;13.11;100.00;99925.81;4995800;28;20371;-76
2023/09/22 07:37:50;;;;;;;;;;;;;;;13.12;100.00;99925.72;4995426;28;20125;-75
2023/09/22 07:40:16;;;;;;;;;;;;;;;13.17;100.00;99935.91;4995977;28;19936;-75
2023/09/22 07:42:41;;;;;;;;;;;;;;;13.22;100.00;99931.19;4996319;28;19918;-75
2023/09/22 07:45:07;;;;;;;;;;;;;;;13.24;100.00;99942.44;4996241;28;19918;-75
2023/09/22 07:47:34;;;;;;;;;;;;;;;13.27;100.00;99936.16;4996404;28;20328;-76
2023/09/22 07:50:00;;;;;;;;;;;;;;;13.30;100.00;99949.97;4995992;28;19917;-75
2023/09/22 07:52:25;;;;;;;;;;;;;;;13.35;100.00;99939.16;4996379;28;19910;-75
2023/09/22 07:54:52;;;;;;;;;;;;;;;13.37;100.00;99947.78;4995964;28;19921;-75
2023/09/22 07:57:17;;;;;;;;;;;;;;;13.39;100.00;99948.53;5001165;28;20004;-75
2023/09/22 07:59:42;;;;;;;;;;;;;;;13.40;100.00;99956.31;4995947;28;20131;-75
2023/09/22 08:02:08;;;;;;;;;;;;;;;13.42;100.00;99948.31;5005977;28;19917;-75
2023/09/22 08:04:34;;;;;;;;;;;;;;;13.42;100.00;99962.34;5000608;28;19959;-75
2023/09/22 08:06:59;;;;;;;;;;;;;;;13.39;100.00;99970.41;4996572;28;19917;-75
2023/09/22 08:09:25;;;;;;;;;;;;;;;13.37;100.00;99969.69;4996078;28;20220;-75
2023/09/22 08:11:50;;;;;;;;;;;;;;;13.39;100.00;99977.47;4995535;28;20212;-75
2023/09/22 08:14:15;;;;;;;;;;;;;;;13.43;100.00;99973.69;4995883;28;19925;-75
2023/09/22 08:16:41;;;;;;;;;;;;;;;13.46;100.00;99980.50;4995106;28;19917;-75
2023/09/22 08:19:12;;;;;;;;;;;;;;;13.49;100.00;99972.44;4995111;28;20143;-75
2023/09/22 08:21:40;;;;;;;;;;;;;;;13.52;100.00;99980.13;4999714;28;19924;-75
2023/09/22 08:24:07;;;;;;;;;;;;;;;13.54;100.00;99994.84;5000805;28;19917;-75
2023/09/22 08:26:32;;;;;;;;;;;;;;;13.53;100.00;99993.16;4996517;28;19909;-75
2023/09/22 08:28:57;;;;;;;;;;;;;;;13.56;100.00;99989.50;4995349;28;20000;-75
2023/09/22 08:31:26;;;;;;;;;;;;;;;13.58;100.00;100000.75;4995041;28;19905;-75
2023/09/22 08:33:52;;;;;;;;;;;;;;;13.60;100.00;99999.69;4995407;28;19925;-75
2023/09/22 08:36:17;;;;;;;;;;;;;;;13.61;100.00;100006.66;4995461;28;19910;-75
2023/09/22 08:38:42;;;;;;;;;;;;;;;13.63;100.00;100012.66;4995187;28;20208;-75
2023/09/22 08:41:08;;;;;;;;;;;;;;;13.62;100.00;100005.72;4997273;28;20121;-75
2023/09/22 08:43:34;;;;;;;;;;;;;;;13.65;100.00;100020.44;4996040;28;20222;-75
2023/09/22 08:46:00;;;;;;;;;;;;;;;13.67;100.00;100008.03;4995355;28;19917;-75
2023/09/22 08:48:26;;;;;;;;;;;;;;;13.69;100.00;100015.81;4995925;28;19918;-75
2023/09/22 08:50:51;;;;;;;;;;;;;;;13.73;100.00;100007.59;4994880;28;19940;-75
2023/09/22 08:53:17;;;;;;;;;;;;;;;13.79;100.00;100011.66;5011297;28;19921;-75
2023/09/22 08:55:42;;;;;;;;;;;;;;;13.86;100.00;100006.78;5011032;28;19918;-75
2023/09/22 08:58:07;;;;;;;;;;;;;;;13.89;100.00;100019.75;4995579;28;19917;-76
2023/09/22 09:00:33;;;;;;;;;;;;;;;13.85;100.00;100026.19;4995335;28;20108;-75
2023/09/22 09:03:05;;;;;;;;;;;;;;;13.83;100.00;100035.00;4994880;28;20208;-75
2023/09/22 09:05:31;;;;;;;;;;;;;;;13.81;100.00;100033.44;4995638;28;19917;-75
2023/09/22 09:08:09;;;;;;;;;;;;;;;13.80;100.00;100035.19;4995250;28;19921;-75
2023/09/22 09:10:35;;;;;;;;;;;;;;;13.85;100.00;100027.00;4995475;28;19917;-75
2023/09/22 09:13:01;;;;;;;;;;;;;;;13.82;100.00;100030.69;4991572;28;20151;-75
2023/09/22 09:15:27;;;;;;;;;;;;;;;13.81;100.00;100028.16;4995137;28;19914;-75
2023/09/22 09:18:06;;;;;;;;;;;;;;;13.87;100.00;100037.44;5006109;28;20105;-75
2023/09/22 09:20:35;;;;;;;;;;;;;;;13.91;100.00;100039.75;4995323;28;19914;-75
2023/09/22 09:23:14;;;;;;;;;;;;;;;13.92;100.00;100032.72;4995211;28;20223;-75
2023/09/22 09:25:41;;;;;;;;;;;;;;;13.97;100.00;100034.09;4994959;28;19906;-75
2023/09/22 09:28:08;;;;;;;;;;;;;;;14.04;100.00;100049.44;4988448;28;19921;-75
2023/09/22 09:30:33;;;;;;;;;;;;;;;14.09;100.00;100048.19;4994406;28;20283;-75
2023/09/22 09:33:09;;;;;;;;;;;;;;;14.14;100.00;100050.53;4994531;28;20109;-75
2023/09/22 09:35:41;;;;;;;;;;;;;;;14.17;100.00;100039.75;4994866;28;19940;-75
2023/09/22 09:38:08;;;;;;;;;;;;;;;14.21;100.00;100051.78;4998684;28;20343;-75
2023/09/22 09:40:37;;;;;;;;;;;;;;;14.24;100.00;100051.56;5000036;28;19914;-75
2023/09/22 09:43:12;;;;;;;;;;;;;;;14.26;100.00;100054.97;5008442;28;20249;-75
2023/09/22 09:45:41;;;;;;;;;;;;;;;14.26;100.00;100049.69;4998899;28;20234;-75
2023/09/22 09:48:09;;;;;;;;;;;;;;;14.26;100.00;100052.31;4998157;28;20200;-75
2023/09/22 09:50:35;;;;;;;;;;;;;;;14.24;100.00;100051.56;4998873;28;20376;-75
2023/09/22 09:53:05;;;;;;;;;;;;;;;14.28;100.00;100063.59;4978809;28;19949;-75
2023/09/22 09:55:30;;;;;;;;;;;;;;;14.31;100.00;100062.53;5003770;28;19917;-75
2023/09/22 09:57:57;;;;;;;;;;;;;;;14.39;100.00;100060.22;5004068;28;19924;-75
2023/09/22 10:00:22;;;;;;;;;;;;;;;14.42;100.00;100064.44;5000337;28;19998;-75
2023/09/22 10:02:48;;;;;;;;;;;;;;;14.46;100.00;100068.53;4997623;28;19918;-75
2023/09/22 10:05:14;;;;;;;;;;;;;;;14.48;100.00;100067.50;4995689;28;19917;-75
2023/09/22 10:07:41;;;;;;;;;;;;;;;14.51;100.00;100066.41;4996031;28;20223;-74
2023/09/22 10:10:06;;;;;;;;;;;;;;;14.49;100.00;100069.16;4998569;28;20275;-75
2023/09/22 10:12:32;;;;;;;;;;;;;;;14.49;100.00;100068.31;4997365;28;20201;-75
2023/09/22 10:15:01;;;;;;;;;;;;;;;14.52;100.00;100070.75;4998963;28;19917;-75
2023/09/22 10:17:27;;;;;;;;;;;;;;;14.52;100.00;100061.06;5001444;28;19918;-74
2023/09/22 10:19:52;;;;;;;;;;;;;;;14.55;100.00;100067.88;5006081;28;20003;-75
2023/09/22 10:22:17;;;;;;;;;;;;;;;14.58;100.00;100073.00;5012968;28;20129;-75
2023/09/22 10:24:43;;;;;;;;;;;;;;;14.62;100.00;100069.19;5015456;28;19914;-75
2023/09/22 10:27:09;;;;;;;;;;;;;;;14.65;100.00;100068.97;5010252;28;20314;-75
2023/09/22 10:29:34;;;;;;;;;;;;;;;14.63;100.00;100059.50;4997817;28;20145;-75
2023/09/22 10:32:29;;;;;;;;;;;;;;;14.66;100.00;100068.03;5003463;28;19917;-75
2023/09/22 10:34:58;;;;;;;;;;;;;;;14.68;100.00;100067.91;4999212;28;20209;-75
2023/09/22 10:37:24;;;;;;;;;;;;;;;14.73;100.00;100074.53;4997879;28;20332;-75
2023/09/22 10:39:52;;;;;;;;;;;;;;;14.80;100.00;100071.50;5007986;28;19909;-75
2023/09/22 10:42:18;;;;;;;;;;;;;;;14.84;100.00;100078.22;4995879;28;19917;-74
2023/09/22 10:44:59;;;;;;;;;;;;;;;14.84;100.00;100084.31;5006273;28;19917;-75
2023/09/22 10:47:44;;;;;;;;;;;;;;;14.86;100.00;100078.94;4997559;28;20120;-75
2023/09/22 10:50:21;;;;;;;;;;;;;;;14.90;100.00;100083.91;4994545;28;19916;-75
2023/09/22 10:52:51;;;;;;;;;;;;;;;14.95;100.00;100084.44;4992696;28;20270;-74
2023/09/22 10:55:26;;;;;;;;;;;;;;;15.03;100.00;100089.16;5002043;28;19917;-74
2023/09/22 10:57:51;;;;;;;;;;;;;;;15.08;100.00;100089.66;4996598;28;19936;-74
2023/09/22 11:00:18;;;;;;;;;;;;;;;15.06;100.00;100091.59;4997280;28;20219;-75
2023/09/22 11:02:43;;;;;;;;;;;;;;;15.07;100.00;100087.97;4996953;28;20224;-75
2023/09/22 11:05:10;;;;;;;;;;;;;;;15.10;100.00;100087.75;4996620;28;19949;-74
2023/09/22 11:07:36;;;;;;;;;;;;;;;15.14;100.00;100096.31;4994866;28;19913;-75
2023/09/22 11:10:02;;;;;;;;;;;;;;;15.07;99.56;100093.25;4995631;28;20183;-75
2023/09/22 11:12:28;;;;;;;;;;;;;;;15.03;99.07;100093.59;4997094;28;19925;-75
2023/09/22 11:14:53;;;;;;;;;;;;;;;15.04;98.95;100087.34;4996739;28;19917;-75
2023/09/22 11:17:19;;;;;;;;;;;;;;;15.11;99.56;100097.34;4997308;28;20258;-75
2023/09/22 11:19:51;;;;;;;;;;;;;;;15.19;99.41;100093.31;4996513;28;19922;-75
2023/09/22 11:22:16;;;;;;;;;;;;;;;15.21;99.27;100104.59;4995953;28;19910;-75
2023/09/22 11:24:42;;;;;;;;;;;;;;;15.24;98.83;100110.50;4995231;28;19917;-74
2023/09/22 11:27:10;;;;;;;;;;;;;;;15.27;98.05;100112.09;4996369;28;20001;-75
2023/09/22 11:29:35;;;;;;;;;;;;;;;15.32;98.83;100110.81;4996627;28;19918;-75
2023/09/22 11:32:00;;;;;;;;;;;;;;;15.36;99.11;100108.78;4996625;28;20156;-75
2023/09/22 11:34:27;;;;;;;;;;;;;;;15.43;100.00;100112.66;4996254;28;19936;-74
2023/09/22 11:36:52;;;;;;;;;;;;;;;15.51;100.00;100109.47;4995268;28;19918;-74
2023/09/22 11:39:29;;;;;;;;;;;;;;;15.52;99.47;100108.53;4998347;28;19917;-75
2023/09/22 11:41:55;;;;;;;;;;;;;;;15.49;98.54;100109.56;4995642;28;19940;-75
2023/09/22 11:44:20;;;;;;;;;;;;;;;15.49;98.57;100112.22;4995911;28;20480;-75
2023/09/22 11:46:46;;;;;;;;;;;;;;;15.53;98.97;100123.38;4996199;28;19917;-75
2023/09/22 11:49:12;;;;;;;;;;;;;;;15.54;99.00;100120.63;4993496;28;19924;-75
2023/09/22 11:51:40;;;;;;;;;;;;;;;15.52;98.26;100117.28;5009475;28;20193;-75
2023/09/22 11:54:10;;;;;;;;;;;;;;;15.48;96.09;100120.22;4993765;28;20248;-74
2023/09/22 11:56:36;;;;;;;;;;;;;;;15.48;94.85;100120.22;4996518;28;19996;-75
2023/09/22 11:59:07;;;;;;;;;;;;;;;15.50;95.07;100136.81;4995222;28;19921;-75
2023/09/22 12:01:33;;;;;;;;;;;;;;;15.48;93.92;100136.06;4996046;28;20084;-74
2023/09/22 12:03:58;;;;;;;;;;;;;;;15.51;95.53;100127.94;4995487;28;20208;-75
2023/09/22 12:06:23;;;;;;;;;;;;;;;15.52;96.58;100134.91;4995568;28;19917;-75
2023/09/22 12:08:48;;;;;;;;;;;;;;;15.54;97.43;100135.63;4999980;28;19925;-74
2023/09/22 12:11:14;;;;;;;;;;;;;;;15.53;96.79;100140.06;4997006;28;20017;-74
2023/09/22 12:13:40;;;;;;;;;;;;;;;15.48;95.18;100144.84;4995129;28;19922;-74
2023/09/22 12:16:06;;;;;;;;;;;;;;;15.46;96.16;100144.13;4996581;28;19949;-74
2023/09/22 12:18:31;;;;;;;;;;;;;;;15.46;96.86;100152.03;4997381;28;19921;-73
2023/09/22 12:20:56;;;;;;;;;;;;;;;15.45;96.67;100163.53;4995713;28;19941;-74
2023/09/22 12:23:21;;;;;;;;;;;;;;;15.43;96.30;100152.25;4995854;28;19936;-74
2023/09/22 12:25:47;;;;;;;;;;;;;;;15.40;95.22;100149.81;4994948;28;19917;-74
2023/09/22 12:28:12;;;;;;;;;;;;;;;15.39;94.39;100156.06;4995994;28;19914;-74
2023/09/22 12:30:37;;;;;;;;;;;;;;;15.40;95.28;100156.91;4994878;28;19964;-74